sensor_id;sensor_type;location;lat;lon;timestamp;P1;durP1;ratioP1;P2;durP2;ratioP2
69706;SDS011;56975;55.726;37.566;2023-08-17T00:00:00;19.4;;;9.6;;
69706;SDS011;56975;55.726;37.566;2023-08-17T00:05:00;22.6;;;10.5;;
69706;SDS011;56975;55.726;37.566;2023-08-17T00:10:00;22.4;;;9.6;;
69706;SDS011;56975;55.726;37.566;2023-08-17T00:15:00;26.6;;;9.4;;
69706;SDS011;56975;55.726;37.566;2023-08-17T00:20:00;23.9;;;10.2;;
69706;SDS011;56975;55.726;37.566;2023-08-17T00:25:00;25.9;;;9.7;;
69706;SDS011;56975;55.726;37.566;2023-08-17T00:30:00;22.0;;;10.6;;
69706;SDS011;56975;55.726;37.566;2023-08-17T00:35:00;24.2;;;10.1;;
69706;SDS011;56975;55.726;37.566;2023-08-17T00:40:00;20.6;;;9.7;;
69706;SDS011;56975;55.726;37.566;2023-08-17T00:45:00;19.6;;;9.4;;
69706;SDS011;56975;55.726;37.566;2023-08-17T00:50:00;27.3;;;9.9;;
69706;SDS011;56975;55.726;37.566;2023-08-17T00:55:00;21.7;;;9.5;;
69706;SDS011;56975;55.726;37.566;2023-08-17T01:00:00;28.1;;;10.7;;
69706;SDS011;56975;55.726;37.566;2023-08-17T01:05:00;22.8;;;10.4;;
69706;SDS011;56975;55.726;37.566;2023-08-17T01:10:00;24.5;;;10.1;;
69706;SDS011;56975;55.726;37.566;2023-08-17T01:15:04;20.6;;;10.4;;
69706;SDS011;56975;55.726;37.566;2023-08-17T01:20:00;27.8;;;10.9;;
69706;SDS011;56975;55.726;37.566;2023-08-17T01:25:00;27.5;;;10.5;;
69706;SDS011;56975;55.726;37.566;2023-08-17T01:30:00;24.2;;;11.4;;
69706;SDS011;56975;55.726;37.566;2023-08-17T01:35:01;26.8;;;10.6;;
69706;SDS011;56975;55.726;37.566;2023-08-17T01:40:00;21.1;;;10.7;;
69706;SDS011;56975;55.726;37.566;2023-08-17T01:45:00;29.6;;;11.0;;
69706;SDS011;56975;55.726;37.566;2023-08-17T01:50:00;25.3;;;11.1;;
69706;SDS011;56975;55.726;37.566;2023-08-17T01:55:00;22.8;;;11.0;;
69706;SDS011;56975;55.726;37.566;2023-08-17T02:00:00;21.4;;;11.4;;
69706;SDS011;56975;55.726;37.566;2023-08-17T02:05:00;29.5;;;11.8;;
69706;SDS011;56975;55.726;37.566;2023-08-17T02:10:00;27.2;;;11.5;;
69706;SDS011;56975;55.726;37.566;2023-08-17T02:15:00;22.4;;;11.6;;
69706;SDS011;56975;55.726;37.566;2023-08-17T02:20:00;29.3;;;11.8;;
69706;SDS011;56975;55.726;37.566;2023-08-17T02:25:00;26.9;;;11.6;;
69706;SDS011;56975;55.726;37.566;2023-08-17T02:30:00;30.3;;;11.9;;
69706;SDS011;56975;55.726;37.566;2023-08-17T02:35:00;29.7;;;12.7;;
69706;SDS011;56975;55.726;37.566;2023-08-17T02:40:00;26.6;;;11.8;;
69706;SDS011;56975;55.726;37.566;2023-08-17T02:45:00;35.2;;;12.9;;
69706;SDS011;56975;55.726;37.566;2023-08-17T02:50:00;27.0;;;11.6;;
69706;SDS011;56975;55.726;37.566;2023-08-17T02:55:00;29.7;;;11.8;;
69706;SDS011;56975;55.726;37.566;2023-08-17T03:00:00;24.2;;;11.8;;
69706;SDS011;56975;55.726;37.566;2023-08-17T03:05:00;33.9;;;12.6;;
69706;SDS011;56975;55.726;37.566;2023-08-17T03:10:00;26.4;;;12.3;;
69706;SDS011;56975;55.726;37.566;2023-08-17T03:15:00;27.5;;;12.2;;
69706;SDS011;56975;55.726;37.566;2023-08-17T03:20:00;29.6;;;12.7;;
69706;SDS011;56975;55.726;37.566;2023-08-17T03:25:00;26.8;;;12.1;;
69706;SDS011;56975;55.726;37.566;2023-08-17T03:30:00;30.6;;;12.0;;
69706;SDS011;56975;55.726;37.566;2023-08-17T03:35:00;29.8;;;12.2;;
69706;SDS011;56975;55.726;37.566;2023-08-17T03:40:00;30.6;;;12.4;;
69706;SDS011;56975;55.726;37.566;2023-08-17T03:45:00;31.2;;;13.7;;
69706;SDS011;56975;55.726;37.566;2023-08-17T03:50:00;29.9;;;12.3;;
69706;SDS011;56975;55.726;37.566;2023-08-17T03:55:00;31.6;;;12.5;;
69706;SDS011;56975;55.726;37.566;2023-08-17T04:00:00;33.6;;;13.2;;
69706;SDS011;56975;55.726;37.566;2023-08-17T04:05:00;26.0;;;12.9;;
69706;SDS011;56975;55.726;37.566;2023-08-17T04:10:00;28.6;;;12.7;;
69706;SDS011;56975;55.726;37.566;2023-08-17T04:15:00;27.6;;;12.5;;
69706;SDS011;56975;55.726;37.566;2023-08-17T04:20:00;26.8;;;12.6;;
69706;SDS011;56975;55.726;37.566;2023-08-17T04:25:00;27.7;;;12.7;;
69706;SDS011;56975;55.726;37.566;2023-08-17T04:30:00;24.0;;;12.3;;
69706;SDS011;56975;55.726;37.566;2023-08-17T04:35:00;27.8;;;12.2;;
69706;SDS011;56975;55.726;37.566;2023-08-17T04:40:00;33.2;;;12.8;;
69706;SDS011;56975;55.726;37.566;2023-08-17T04:45:00;23.2;;;12.1;;
69706;SDS011;56975;55.726;37.566;2023-08-17T04:50:00;22.9;;;11.9;;
69706;SDS011;56975;55.726;37.566;2023-08-17T04:55:00;23.6;;;12.0;;
69706;SDS011;56975;55.726;37.566;2023-08-17T05:00:00;24.8;;;12.4;;
69706;SDS011;56975;55.726;37.566;2023-08-17T05:05:00;25.3;;;11.6;;
69706;SDS011;56975;55.726;37.566;2023-08-17T05:10:00;25.7;;;10.8;;
69706;SDS011;56975;55.726;37.566;2023-08-17T05:15:00;20.4;;;11.0;;
69706;SDS011;56975;55.726;37.566;2023-08-17T05:20:00;20.7;;;10.2;;
69706;SDS011;56975;55.726;37.566;2023-08-17T05:25:00;24.0;;;10.8;;
69706;SDS011;56975;55.726;37.566;2023-08-17T05:30:00;21.7;;;10.8;;
69706;SDS011;56975;55.726;37.566;2023-08-17T05:35:17;23.0;;;11.3;;
69706;SDS011;56975;55.726;37.566;2023-08-17T05:40:00;19.5;;;9.7;;
69706;SDS011;56975;55.726;37.566;2023-08-17T05:45:00;14.2;;;7.1;;
69706;SDS011;56975;55.726;37.566;2023-08-17T05:50:00;12.7;;;6.3;;
69706;SDS011;56975;55.726;37.566;2023-08-17T05:55:00;13.6;;;6.5;;
69706;SDS011;56975;55.726;37.566;2023-08-17T06:00:00;12.1;;;7.3;;
69706;SDS011;56975;55.726;37.566;2023-08-17T06:05:00;15.3;;;5.6;;
69706;SDS011;56975;55.726;37.566;2023-08-17T06:10:02;11.8;;;5.7;;
69706;SDS011;56975;55.726;37.566;2023-08-17T06:15:01;9.9;;;4.7;;
69706;SDS011;56975;55.726;37.566;2023-08-17T06:20:00;11.0;;;4.6;;
69706;SDS011;56975;55.726;37.566;2023-08-17T06:25:00;11.0;;;4.8;;
69706;SDS011;56975;55.726;37.566;2023-08-17T06:30:00;10.3;;;4.3;;
69706;SDS011;56975;55.726;37.566;2023-08-17T06:35:00;13.0;;;4.5;;
69706;SDS011;56975;55.726;37.566;2023-08-17T06:40:00;9.1;;;4.3;;
69706;SDS011;56975;55.726;37.566;2023-08-17T06:45:00;8.7;;;3.9;;
69706;SDS011;56975;55.726;37.566;2023-08-17T06:50:00;7.5;;;3.3;;
69706;SDS011;56975;55.726;37.566;2023-08-17T06:55:00;8.4;;;3.6;;
69706;SDS011;56975;55.726;37.566;2023-08-17T07:00:00;9.7;;;3.2;;
69706;SDS011;56975;55.726;37.566;2023-08-17T07:05:00;13.2;;;3.8;;
69706;SDS011;56975;55.726;37.566;2023-08-17T07:10:00;5.6;;;2.3;;
69706;SDS011;56975;55.726;37.566;2023-08-17T07:15:00;11.1;;;3.0;;
69706;SDS011;56975;55.726;37.566;2023-08-17T07:20:00;6.7;;;3.1;;
69706;SDS011;56975;55.726;37.566;2023-08-17T07:25:00;6.6;;;2.6;;
69706;SDS011;56975;55.726;37.566;2023-08-17T07:30:00;6.6;;;3.8;;
69706;SDS011;56975;55.726;37.566;2023-08-17T07:35:00;7.4;;;3.1;;
69706;SDS011;56975;55.726;37.566;2023-08-17T07:40:00;10.0;;;3.7;;
69706;SDS011;56975;55.726;37.566;2023-08-17T07:45:01;6.2;;;3.5;;
69706;SDS011;56975;55.726;37.566;2023-08-17T07:50:00;6.0;;;2.9;;
69706;SDS011;56975;55.726;37.566;2023-08-17T07:55:00;11.1;;;3.7;;
69706;SDS011;56975;55.726;37.566;2023-08-17T08:00:00;8.3;;;5.3;;
69706;SDS011;56975;55.726;37.566;2023-08-17T08:05:00;9.0;;;3.5;;
69706;SDS011;56975;55.726;37.566;2023-08-17T08:10:00;10.9;;;4.1;;
69706;SDS011;56975;55.726;37.566;2023-08-17T08:15:00;9.1;;;3.7;;
69706;SDS011;56975;55.726;37.566;2023-08-17T08:20:00;9.1;;;4.3;;
69706;SDS011;56975;55.726;37.566;2023-08-17T08:25:00;12.7;;;4.1;;
69706;SDS011;56975;55.726;37.566;2023-08-17T08:30:00;13.4;;;3.3;;
69706;SDS011;56975;55.726;37.566;2023-08-17T08:35:00;13.9;;;4.0;;
69706;SDS011;56975;55.726;37.566;2023-08-17T08:40:00;7.8;;;3.3;;
69706;SDS011;56975;55.726;37.566;2023-08-17T08:45:00;6.3;;;3.9;;
69706;SDS011;56975;55.726;37.566;2023-08-17T08:50:01;8.7;;;4.6;;
69706;SDS011;56975;55.726;37.566;2023-08-17T08:55:03;13.8;;;4.1;;
69706;SDS011;56975;55.726;37.566;2023-08-17T09:00:00;7.6;;;3.7;;
69706;SDS011;56975;55.726;37.566;2023-08-17T09:05:00;10.9;;;4.0;;
69706;SDS011;56975;55.726;37.566;2023-08-17T09:10:00;8.3;;;4.1;;
69706;SDS011;56975;55.726;37.566;2023-08-17T09:15:00;11.8;;;4.4;;
69706;SDS011;56975;55.726;37.566;2023-08-17T09:20:00;9.3;;;3.6;;
69706;SDS011;56975;55.726;37.566;2023-08-17T09:25:00;8.6;;;3.2;;
69706;SDS011;56975;55.726;37.566;2023-08-17T09:30:01;8.8;;;3.3;;
69706;SDS011;56975;55.726;37.566;2023-08-17T09:35:00;9.7;;;3.4;;
69706;SDS011;56975;55.726;37.566;2023-08-17T09:40:00;7.7;;;3.7;;
69706;SDS011;56975;55.726;37.566;2023-08-17T09:45:00;19.3;;;14.7;;
69706;SDS011;56975;55.726;37.566;2023-08-17T09:50:00;8.4;;;3.2;;
69706;SDS011;56975;55.726;37.566;2023-08-17T09:55:00;7.5;;;3.4;;
69706;SDS011;56975;55.726;37.566;2023-08-17T10:00:00;7.1;;;3.0;;
69706;SDS011;56975;55.726;37.566;2023-08-17T10:05:00;11.5;;;3.2;;
69706;SDS011;56975;55.726;37.566;2023-08-17T10:10:02;7.9;;;3.1;;
69706;SDS011;56975;55.726;37.566;2023-08-17T10:15:02;9.3;;;3.3;;
69706;SDS011;56975;55.726;37.566;2023-08-17T10:20:00;10.8;;;3.5;;
69706;SDS011;56975;55.726;37.566;2023-08-17T10:25:00;9.8;;;3.7;;
69706;SDS011;56975;55.726;37.566;2023-08-17T10:30:00;7.4;;;3.3;;
69706;SDS011;56975;55.726;37.566;2023-08-17T10:35:00;8.8;;;3.6;;
69706;SDS011;56975;55.726;37.566;2023-08-17T10:40:00;11.3;;;3.7;;
69706;SDS011;56975;55.726;37.566;2023-08-17T10:45:00;10.5;;;2.9;;
69706;SDS011;56975;55.726;37.566;2023-08-17T10:50:03;4.9;;;3.1;;
69706;SDS011;56975;55.726;37.566;2023-08-17T10:55:00;9.5;;;3.9;;
69706;SDS011;56975;55.726;37.566;2023-08-17T11:00:08;7.6;;;3.2;;
69706;SDS011;56975;55.726;37.566;2023-08-17T11:05:00;7.8;;;3.6;;
69706;SDS011;56975;55.726;37.566;2023-08-17T11:10:00;11.1;;;6.3;;
69706;SDS011;56975;55.726;37.566;2023-08-17T11:15:00;8.9;;;5.2;;
69706;SDS011;56975;55.726;37.566;2023-08-17T11:20:00;6.6;;;3.4;;
69706;SDS011;56975;55.726;37.566;2023-08-17T11:25:00;6.6;;;3.4;;
69706;SDS011;56975;55.726;37.566;2023-08-17T11:30:00;7.1;;;3.3;;
69706;SDS011;56975;55.726;37.566;2023-08-17T11:35:00;7.7;;;3.8;;
69706;SDS011;56975;55.726;37.566;2023-08-17T11:40:00;8.6;;;3.7;;
69706;SDS011;56975;55.726;37.566;2023-08-17T11:45:00;10.1;;;4.1;;
69706;SDS011;56975;55.726;37.566;2023-08-17T11:50:00;8.5;;;4.0;;
69706;SDS011;56975;55.726;37.566;2023-08-17T11:55:00;8.0;;;4.1;;
69706;SDS011;56975;55.726;37.566;2023-08-17T12:00:00;31.4;;;28.2;;
69706;SDS011;56975;55.726;37.566;2023-08-17T12:05:02;8.0;;;3.1;;
69706;SDS011;56975;55.726;37.566;2023-08-17T12:10:01;9.5;;;3.5;;
69706;SDS011;56975;55.726;37.566;2023-08-17T12:15:00;9.8;;;4.7;;
69706;SDS011;56975;55.726;37.566;2023-08-17T12:20:00;7.9;;;3.5;;
69706;SDS011;56975;55.726;37.566;2023-08-17T12:25:02;6.6;;;3.3;;
69706;SDS011;56975;55.726;37.566;2023-08-17T12:30:00;8.9;;;3.8;;
69706;SDS011;56975;55.726;37.566;2023-08-17T12:35:00;8.3;;;3.4;;
69706;SDS011;56975;55.726;37.566;2023-08-17T12:40:00;6.2;;;3.5;;
69706;SDS011;56975;55.726;37.566;2023-08-17T12:45:00;10.8;;;4.4;;
69706;SDS011;56975;55.726;37.566;2023-08-17T12:50:00;8.7;;;3.9;;
69706;SDS011;56975;55.726;37.566;2023-08-17T12:55:00;6.7;;;3.4;;
69706;SDS011;56975;55.726;37.566;2023-08-17T13:00:00;8.0;;;3.8;;
69706;SDS011;56975;55.726;37.566;2023-08-17T13:05:00;9.9;;;4.4;;
69706;SDS011;56975;55.726;37.566;2023-08-17T13:10:00;8.4;;;3.8;;
69706;SDS011;56975;55.726;37.566;2023-08-17T13:15:00;6.6;;;3.2;;
69706;SDS011;56975;55.726;37.566;2023-08-17T13:20:00;10.4;;;3.7;;
69706;SDS011;56975;55.726;37.566;2023-08-17T13:25:00;7.5;;;3.3;;
69706;SDS011;56975;55.726;37.566;2023-08-17T13:30:00;7.6;;;3.5;;
69706;SDS011;56975;55.726;37.566;2023-08-17T13:35:01;7.8;;;3.4;;
69706;SDS011;56975;55.726;37.566;2023-08-17T13:40:00;8.7;;;3.3;;
69706;SDS011;56975;55.726;37.566;2023-08-17T13:45:00;8.7;;;3.7;;
69706;SDS011;56975;55.726;37.566;2023-08-17T13:50:00;8.0;;;3.3;;
69706;SDS011;56975;55.726;37.566;2023-08-17T13:55:00;6.8;;;3.1;;
69706;SDS011;56975;55.726;37.566;2023-08-17T14:00:00;7.2;;;3.4;;
69706;SDS011;56975;55.726;37.566;2023-08-17T14:05:00;12.3;;;3.2;;
69706;SDS011;56975;55.726;37.566;2023-08-17T14:10:00;10.9;;;3.8;;
69706;SDS011;56975;55.726;37.566;2023-08-17T14:15:00;6.1;;;3.1;;
69706;SDS011;56975;55.726;37.566;2023-08-17T14:20:00;4.4;;;2.4;;
69706;SDS011;56975;55.726;37.566;2023-08-17T14:25:00;8.4;;;3.4;;
69706;SDS011;56975;55.726;37.566;2023-08-17T14:30:00;9.1;;;3.2;;
69706;SDS011;56975;55.726;37.566;2023-08-17T14:35:00;9.0;;;2.9;;
69706;SDS011;56975;55.726;37.566;2023-08-17T14:40:00;5.9;;;3.5;;
69706;SDS011;56975;55.726;37.566;2023-08-17T14:45:00;7.4;;;3.2;;
69706;SDS011;56975;55.726;37.566;2023-08-17T14:50:00;6.4;;;3.7;;
69706;SDS011;56975;55.726;37.566;2023-08-17T14:55:00;7.4;;;2.6;;
69706;SDS011;56975;55.726;37.566;2023-08-17T15:00:00;8.0;;;2.9;;
69706;SDS011;56975;55.726;37.566;2023-08-17T15:05:00;5.6;;;2.9;;
69706;SDS011;56975;55.726;37.566;2023-08-17T15:10:00;6.0;;;2.9;;
69706;SDS011;56975;55.726;37.566;2023-08-17T15:15:00;8.7;;;3.1;;
69706;SDS011;56975;55.726;37.566;2023-08-17T15:20:00;7.5;;;3.1;;
69706;SDS011;56975;55.726;37.566;2023-08-17T15:25:00;6.2;;;3.0;;
69706;SDS011;56975;55.726;37.566;2023-08-17T15:30:00;7.1;;;3.2;;
69706;SDS011;56975;55.726;37.566;2023-08-17T15:35:00;7.3;;;3.6;;
69706;SDS011;56975;55.726;37.566;2023-08-17T15:40:00;6.1;;;3.2;;
69706;SDS011;56975;55.726;37.566;2023-08-17T15:45:00;8.3;;;3.9;;
69706;SDS011;56975;55.726;37.566;2023-08-17T15:50:00;7.8;;;3.8;;
69706;SDS011;56975;55.726;37.566;2023-08-17T15:55:00;7.1;;;3.3;;
69706;SDS011;56975;55.726;37.566;2023-08-17T16:00:00;6.4;;;2.6;;
69706;SDS011;56975;55.726;37.566;2023-08-17T16:05:00;11.4;;;5.1;;
69706;SDS011;56975;55.726;37.566;2023-08-17T16:10:00;7.0;;;3.4;;
69706;SDS011;56975;55.726;37.566;2023-08-17T16:15:00;7.8;;;3.2;;
69706;SDS011;56975;55.726;37.566;2023-08-17T16:20:00;6.6;;;3.2;;
69706;SDS011;56975;55.726;37.566;2023-08-17T16:25:00;10.5;;;3.9;;
69706;SDS011;56975;55.726;37.566;2023-08-17T16:30:00;7.7;;;3.6;;
69706;SDS011;56975;55.726;37.566;2023-08-17T16:35:00;13.9;;;8.2;;
69706;SDS011;56975;55.726;37.566;2023-08-17T16:40:00;20.3;;;15.9;;
69706;SDS011;56975;55.726;37.566;2023-08-17T16:45:00;10.7;;;5.2;;
69706;SDS011;56975;55.726;37.566;2023-08-17T16:50:00;8.4;;;4.6;;
69706;SDS011;56975;55.726;37.566;2023-08-17T16:55:00;10.7;;;5.1;;
69706;SDS011;56975;55.726;37.566;2023-08-17T17:00:00;11.1;;;5.0;;
69706;SDS011;56975;55.726;37.566;2023-08-17T17:05:00;9.4;;;5.5;;
69706;SDS011;56975;55.726;37.566;2023-08-17T17:10:00;9.7;;;5.1;;
69706;SDS011;56975;55.726;37.566;2023-08-17T17:15:00;9.3;;;5.1;;
69706;SDS011;56975;55.726;37.566;2023-08-17T17:20:00;9.0;;;4.8;;
69706;SDS011;56975;55.726;37.566;2023-08-17T17:25:00;8.5;;;4.6;;
69706;SDS011;56975;55.726;37.566;2023-08-17T17:30:00;9.9;;;5.3;;
69706;SDS011;56975;55.726;37.566;2023-08-17T17:35:00;13.9;;;6.1;;
69706;SDS011;56975;55.726;37.566;2023-08-17T17:40:00;9.5;;;5.1;;
69706;SDS011;56975;55.726;37.566;2023-08-17T17:45:00;10.2;;;5.3;;
69706;SDS011;56975;55.726;37.566;2023-08-17T17:50:00;12.3;;;5.5;;
69706;SDS011;56975;55.726;37.566;2023-08-17T17:55:00;15.2;;;6.6;;
69706;SDS011;56975;55.726;37.566;2023-08-17T18:00:00;11.3;;;6.3;;
69706;SDS011;56975;55.726;37.566;2023-08-17T18:05:00;10.2;;;5.8;;
69706;SDS011;56975;55.726;37.566;2023-08-17T18:10:00;13.3;;;6.0;;
69706;SDS011;56975;55.726;37.566;2023-08-17T18:15:00;11.4;;;6.4;;
69706;SDS011;56975;55.726;37.566;2023-08-17T18:20:00;11.0;;;6.5;;
69706;SDS011;56975;55.726;37.566;2023-08-17T18:25:00;13.5;;;6.5;;
69706;SDS011;56975;55.726;37.566;2023-08-17T18:30:00;12.3;;;7.4;;
69706;SDS011;56975;55.726;37.566;2023-08-17T18:35:00;16.0;;;7.5;;
69706;SDS011;56975;55.726;37.566;2023-08-17T18:40:00;16.6;;;7.3;;
69706;SDS011;56975;55.726;37.566;2023-08-17T18:45:00;20.3;;;7.1;;
69706;SDS011;56975;55.726;37.566;2023-08-17T18:50:00;16.1;;;7.3;;
69706;SDS011;56975;55.726;37.566;2023-08-17T18:55:01;10.7;;;6.6;;
69706;SDS011;56975;55.726;37.566;2023-08-17T19:00:00;16.1;;;8.5;;
69706;SDS011;56975;55.726;37.566;2023-08-17T19:05:00;18.5;;;6.9;;
69706;SDS011;56975;55.726;37.566;2023-08-17T19:10:00;18.5;;;8.7;;
69706;SDS011;56975;55.726;37.566;2023-08-17T19:15:00;18.9;;;9.2;;
69706;SDS011;56975;55.726;37.566;2023-08-17T19:20:00;21.4;;;8.1;;
69706;SDS011;56975;55.726;37.566;2023-08-17T19:25:00;15.1;;;6.1;;
69706;SDS011;56975;55.726;37.566;2023-08-17T19:30:00;21.4;;;7.6;;
69706;SDS011;56975;55.726;37.566;2023-08-17T19:35:00;21.6;;;7.1;;
69706;SDS011;56975;55.726;37.566;2023-08-17T19:40:00;15.7;;;7.5;;
69706;SDS011;56975;55.726;37.566;2023-08-17T19:45:00;20.5;;;8.9;;
69706;SDS011;56975;55.726;37.566;2023-08-17T19:50:01;20.0;;;7.1;;
69706;SDS011;56975;55.726;37.566;2023-08-17T19:55:00;16.3;;;6.4;;
69706;SDS011;56975;55.726;37.566;2023-08-17T20:00:00;17.2;;;6.8;;
69706;SDS011;56975;55.726;37.566;2023-08-17T20:05:00;20.1;;;7.4;;
69706;SDS011;56975;55.726;37.566;2023-08-17T20:10:00;22.9;;;7.4;;
69706;SDS011;56975;55.726;37.566;2023-08-17T20:15:00;22.3;;;10.3;;
69706;SDS011;56975;55.726;37.566;2023-08-17T20:20:00;20.3;;;7.7;;
69706;SDS011;56975;55.726;37.566;2023-08-17T20:25:00;30.8;;;10.6;;
69706;SDS011;56975;55.726;37.566;2023-08-17T20:30:00;38.4;;;12.6;;
69706;SDS011;56975;55.726;37.566;2023-08-17T20:35:00;38.3;;;13.4;;
69706;SDS011;56975;55.726;37.566;2023-08-17T20:40:00;37.6;;;11.8;;
69706;SDS011;56975;55.726;37.566;2023-08-17T20:45:00;42.1;;;13.1;;
69706;SDS011;56975;55.726;37.566;2023-08-17T20:50:00;32.3;;;10.5;;
69706;SDS011;56975;55.726;37.566;2023-08-17T20:55:00;25.6;;;9.6;;
69706;SDS011;56975;55.726;37.566;2023-08-17T21:00:00;33.0;;;10.0;;
69706;SDS011;56975;55.726;37.566;2023-08-17T21:05:00;40.0;;;12.0;;
69706;SDS011;56975;55.726;37.566;2023-08-17T21:10:00;33.5;;;11.6;;
69706;SDS011;56975;55.726;37.566;2023-08-17T21:15:00;37.9;;;12.2;;
69706;SDS011;56975;55.726;37.566;2023-08-17T21:20:00;41.3;;;11.5;;
69706;SDS011;56975;55.726;37.566;2023-08-17T21:25:00;37.8;;;11.5;;
69706;SDS011;56975;55.726;37.566;2023-08-17T21:30:00;24.8;;;8.5;;
69706;SDS011;56975;55.726;37.566;2023-08-17T21:35:00;24.4;;;8.4;;
69706;SDS011;56975;55.726;37.566;2023-08-17T21:40:00;23.6;;;8.3;;
69706;SDS011;56975;55.726;37.566;2023-08-17T21:45:00;23.0;;;8.1;;
69706;SDS011;56975;55.726;37.566;2023-08-17T21:50:00;28.6;;;8.2;;
69706;SDS011;56975;55.726;37.566;2023-08-17T21:55:00;24.6;;;8.8;;
69706;SDS011;56975;55.726;37.566;2023-08-17T22:00:00;33.1;;;9.7;;
69706;SDS011;56975;55.726;37.566;2023-08-17T22:05:00;31.4;;;11.0;;
69706;SDS011;56975;55.726;37.566;2023-08-17T22:10:00;37.0;;;12.0;;
69706;SDS011;56975;55.726;37.566;2023-08-17T22:15:00;39.4;;;11.5;;
69706;SDS011;56975;55.726;37.566;2023-08-17T22:20:00;38.0;;;11.9;;
69706;SDS011;56975;55.726;37.566;2023-08-17T22:25:00;38.0;;;12.3;;
69706;SDS011;56975;55.726;37.566;2023-08-17T22:30:00;30.9;;;9.8;;
69706;SDS011;56975;55.726;37.566;2023-08-17T22:35:00;29.4;;;9.5;;
69706;SDS011;56975;55.726;37.566;2023-08-17T22:40:00;34.0;;;11.9;;
69706;SDS011;56975;55.726;37.566;2023-08-17T22:45:00;33.0;;;13.1;;
69706;SDS011;56975;55.726;37.566;2023-08-17T22:50:00;25.4;;;8.1;;
69706;SDS011;56975;55.726;37.566;2023-08-17T22:55:00;25.9;;;8.7;;
69706;SDS011;56975;55.726;37.566;2023-08-17T23:00:00;31.0;;;11.4;;
69706;SDS011;56975;55.726;37.566;2023-08-17T23:05:00;41.1;;;11.8;;
69706;SDS011;56975;55.726;37.566;2023-08-17T23:10:00;27.0;;;11.3;;
69706;SDS011;56975;55.726;37.566;2023-08-17T23:16:15;26.1;;;10.2;;
69706;SDS011;56975;55.726;37.566;2023-08-17T23:25:00;29.6;;;11.7;;
69706;SDS011;56975;55.726;37.566;2023-08-17T23:30:00;20.6;;;9.0;;
69706;SDS011;56975;55.726;37.566;2023-08-17T23:35:00;22.5;;;10.0;;
69706;SDS011;56975;55.726;37.566;2023-08-17T23:40:00;30.5;;;10.4;;
69706;SDS011;56975;55.726;37.566;2023-08-17T23:45:00;24.1;;;10.1;;
69706;SDS011;56975;55.726;37.566;2023-08-17T23:50:00;23.0;;;10.8;;
69706;SDS011;56975;55.726;37.566;2023-08-17T23:55:00;22.6;;;10.1;;
